createdAt,value
2023-10-24T00:00:34.967Z,11.64
2023-10-24T00:03:04.204Z,12.09
2023-10-24T00:05:31.988Z,12.31
2023-10-24T00:07:59.647Z,12.32
2023-10-24T00:10:27.332Z,11.97
2023-10-24T00:12:55.207Z,12.03
2023-10-24T00:15:23.141Z,11.90
2023-10-24T00:17:50.857Z,11.89
2023-10-24T00:20:20.119Z,11.64
2023-10-24T00:22:47.782Z,12.17
2023-10-24T00:25:16.194Z,11.92
2023-10-24T00:27:43.977Z,12.18
2023-10-24T00:30:12.330Z,12.04
2023-10-24T00:32:40.080Z,12.12
2023-10-24T00:35:08.278Z,12.15
2023-10-24T00:37:37.404Z,11.97
2023-10-24T00:40:06.068Z,12.01
2023-10-24T00:42:33.726Z,12.03
2023-10-24T00:45:01.380Z,11.77
2023-10-24T00:47:29.393Z,12.56
2023-10-24T00:49:57.288Z,12.45
2023-10-24T00:52:25.250Z,12.17
2023-10-24T00:54:54.763Z,12.02
2023-10-24T00:57:22.901Z,12.16
2023-10-24T00:59:51.607Z,11.84
2023-10-24T01:02:20.692Z,11.93
2023-10-24T01:04:50.139Z,12.14
2023-10-24T01:07:17.844Z,12.11
2023-10-24T01:09:45.770Z,12.04
2023-10-24T01:12:15.039Z,12.18
2023-10-24T01:14:43.014Z,11.86
2023-10-24T01:17:14.837Z,12.10
2023-10-24T01:19:42.623Z,12.23
2023-10-24T01:22:11.718Z,12.15
2023-10-24T01:24:40.127Z,12.22
2023-10-24T01:27:07.980Z,12.03
2023-10-24T01:29:36.625Z,12.04
2023-10-24T01:32:04.693Z,12.04
2023-10-24T01:34:32.496Z,12.43
2023-10-24T01:37:00.209Z,11.96
2023-10-24T01:39:29.192Z,12.05
2023-10-24T01:41:56.844Z,12.18
2023-10-24T01:44:24.583Z,12.04
2023-10-24T01:46:52.265Z,12.25
2023-10-24T01:49:22.247Z,12.08
2023-10-24T01:51:50.482Z,12.44
2023-10-24T01:54:18.141Z,12.54
2023-10-24T01:56:47.405Z,12.23
2023-10-24T01:59:15.054Z,12.18
2023-10-24T02:01:43.463Z,12.26
2023-10-24T02:04:14.884Z,11.80
2023-10-24T02:06:42.945Z,12.27
2023-10-24T02:09:10.657Z,12.52
2023-10-24T02:11:38.313Z,12.58
2023-10-24T02:14:07.382Z,12.24
2023-10-24T02:16:35.075Z,12.03
2023-10-24T02:19:03.085Z,12.19
2023-10-24T02:21:30.765Z,12.46
2023-10-24T02:23:58.853Z,12.92
2023-10-24T02:26:26.934Z,12.66
2023-10-24T02:28:54.661Z,12.76
2023-10-24T02:31:23.784Z,13.13
2023-10-24T02:33:51.790Z,13.26
2023-10-24T02:36:19.488Z,12.53
2023-10-24T02:38:47.163Z,12.10
2023-10-24T02:41:15.006Z,12.78
2023-10-24T02:43:42.767Z,12.87
2023-10-24T02:46:10.530Z,12.97
2023-10-24T02:48:39.730Z,12.38
2023-10-24T02:51:07.503Z,11.68
2023-10-24T02:53:35.162Z,12.16
2023-10-24T02:56:03.836Z,12.27
2023-10-24T02:58:31.668Z,12.17
2023-10-24T03:01:05.948Z,11.95
2023-10-24T03:03:34.729Z,12.23
2023-10-24T03:06:03.919Z,12.18
2023-10-24T03:08:31.598Z,11.89
2023-10-24T03:10:59.339Z,12.27
2023-10-24T03:13:27.039Z,12.00
2023-10-24T03:15:54.695Z,12.22
2023-10-24T03:18:22.376Z,12.25
2023-10-24T03:20:50.039Z,12.03
2023-10-24T03:23:19.187Z,12.08
2023-10-24T03:25:46.852Z,12.30
2023-10-24T03:28:15.229Z,12.44
2023-10-24T03:30:42.966Z,12.61
2023-10-24T03:33:10.811Z,12.18
2023-10-24T03:35:38.863Z,12.26
2023-10-24T03:38:06.493Z,12.47
2023-10-24T03:40:35.551Z,12.37
2023-10-24T03:43:03.222Z,12.57
2023-10-24T03:45:30.990Z,12.15
2023-10-24T03:47:58.821Z,11.92
2023-10-24T03:50:26.619Z,12.08
2023-10-24T03:52:54.356Z,12.08
2023-10-24T03:55:22.332Z,12.01
2023-10-24T03:57:51.339Z,12.23
2023-10-24T04:00:19.588Z,12.32
2023-10-24T04:02:48.144Z,12.65
2023-10-24T04:05:16.035Z,12.06
2023-10-24T04:07:43.743Z,12.27
2023-10-24T04:10:12.872Z,12.23
2023-10-24T04:12:40.616Z,12.30
2023-10-24T04:15:11.437Z,12.23
2023-10-24T04:17:39.305Z,11.68
2023-10-24T04:20:09.123Z,12.25
2023-10-24T04:22:37.083Z,12.12
2023-10-24T04:25:05.657Z,11.92
2023-10-24T04:27:33.340Z,12.29
2023-10-24T04:30:01.664Z,11.78
2023-10-24T04:32:31.867Z,12.20
2023-10-24T04:35:00.391Z,12.54
2023-10-24T04:37:28.178Z,12.26
2023-10-24T04:39:56.044Z,11.93
2023-10-24T04:42:24.713Z,12.18
2023-10-24T04:44:52.436Z,12.26
2023-10-24T04:47:20.117Z,11.99
2023-10-24T04:49:49.211Z,12.14
2023-10-24T04:52:17.029Z,11.99
2023-10-24T04:54:45.488Z,12.16
2023-10-24T04:57:13.254Z,11.98
2023-10-24T04:59:40.914Z,12.18
2023-10-24T05:02:08.639Z,11.75
2023-10-24T05:04:36.331Z,12.04
2023-10-24T05:07:06.926Z,12.12
2023-10-24T05:09:36.271Z,11.74
2023-10-24T05:12:04.298Z,12.02
2023-10-24T05:14:32.069Z,11.75
2023-10-24T05:16:59.976Z,11.85
2023-10-24T05:19:27.908Z,11.95
2023-10-24T05:21:55.805Z,12.45
2023-10-24T05:24:24.822Z,11.84
2023-10-24T05:26:52.467Z,11.95
2023-10-24T05:29:20.155Z,11.86
2023-10-24T05:31:47.976Z,11.94
2023-10-24T05:34:15.765Z,12.73
2023-10-24T05:36:43.638Z,12.43
2023-10-24T05:39:11.472Z,11.96
2023-10-24T05:41:40.478Z,12.20
2023-10-24T05:44:09.361Z,12.23
2023-10-24T05:46:37.062Z,12.64
2023-10-24T05:49:04.886Z,12.20
2023-10-24T05:51:32.613Z,12.12
2023-10-24T05:54:01.081Z,12.13
2023-10-24T05:56:28.805Z,12.36
2023-10-24T05:58:57.880Z,11.86
2023-10-24T06:01:25.813Z,12.05
2023-10-24T06:03:53.605Z,12.64
2023-10-24T06:06:21.250Z,12.57
2023-10-24T06:08:48.930Z,12.41
2023-10-24T06:11:17.157Z,12.61
2023-10-24T06:13:44.829Z,12.18
2023-10-24T06:16:18.230Z,12.42
2023-10-24T06:18:46.104Z,12.83
2023-10-24T06:21:14.479Z,12.70
2023-10-24T06:23:42.119Z,12.17
2023-10-24T06:26:14.320Z,12.19
2023-10-24T06:28:42.057Z,12.18
2023-10-24T06:31:09.814Z,12.59
2023-10-24T06:33:40.000Z,12.29
2023-10-24T06:36:08.740Z,12.64
2023-10-24T06:38:36.408Z,12.13
2023-10-24T06:41:04.098Z,12.35
2023-10-24T06:43:31.790Z,12.43
2023-10-24T06:45:59.495Z,12.59
2023-10-24T06:48:27.149Z,12.62
2023-10-24T06:50:56.136Z,12.49
2023-10-24T06:53:23.833Z,12.78
2023-10-24T06:55:51.542Z,12.41
2023-10-24T06:58:19.260Z,12.62
2023-10-24T07:00:47.245Z,12.48
2023-10-24T07:03:15.073Z,12.29
2023-10-24T07:05:42.815Z,12.71
2023-10-24T07:08:11.889Z,12.76
2023-10-24T07:10:39.661Z,12.38
2023-10-24T07:13:07.307Z,13.26
2023-10-24T07:15:34.960Z,13.14
2023-10-24T07:18:02.614Z,12.80
2023-10-24T07:20:30.275Z,13.11
2023-10-24T07:22:57.965Z,13.87
2023-10-24T07:25:27.543Z,13.35
2023-10-24T07:27:55.337Z,13.28
2023-10-24T07:30:24.017Z,13.18
2023-10-24T07:32:51.747Z,13.70
2023-10-24T07:35:19.493Z,13.71
2023-10-24T07:37:47.184Z,14.04
2023-10-24T07:40:15.174Z,13.05
2023-10-24T07:42:44.200Z,13.70
2023-10-24T07:45:13.322Z,13.29
2023-10-24T07:47:41.147Z,13.82
2023-10-24T07:50:10.562Z,13.14
2023-10-24T07:52:38.292Z,12.91
2023-10-24T07:55:06.900Z,12.64
2023-10-24T07:57:35.076Z,13.44
2023-10-24T08:00:04.611Z,13.44
2023-10-24T08:02:32.288Z,13.09
2023-10-24T08:05:00.016Z,13.23
2023-10-24T08:07:27.812Z,13.84
2023-10-24T08:09:55.621Z,13.37
2023-10-24T08:12:23.490Z,13.89
2023-10-24T08:14:51.509Z,13.37
2023-10-24T08:17:20.756Z,13.60
2023-10-24T08:19:48.556Z,13.33
2023-10-24T08:22:16.215Z,13.85
2023-10-24T08:24:44.721Z,13.70
2023-10-24T08:27:13.642Z,13.54
2023-10-24T08:29:41.557Z,13.37
2023-10-24T08:32:14.791Z,13.75
2023-10-24T08:34:45.081Z,13.32
2023-10-24T08:37:13.135Z,13.23
2023-10-24T08:39:41.333Z,13.84
2023-10-24T08:42:11.922Z,13.47
2023-10-24T08:44:40.787Z,13.35
2023-10-24T08:47:09.457Z,13.86
2023-10-24T08:49:38.570Z,13.82
2023-10-24T08:52:22.501Z,13.30
2023-10-24T08:54:54.772Z,13.41
2023-10-24T08:57:26.984Z,13.52
2023-10-24T08:59:57.270Z,13.68
2023-10-24T09:02:25.181Z,13.91
2023-10-24T09:04:53.508Z,13.65
2023-10-24T09:07:22.566Z,14.01
2023-10-24T09:09:50.250Z,13.72
2023-10-24T09:12:18.002Z,13.50
2023-10-24T09:14:54.425Z,13.54
2023-10-24T09:17:24.780Z,14.03
2023-10-24T09:19:53.241Z,13.65
2023-10-24T09:22:22.335Z,13.63
2023-10-24T09:24:51.143Z,13.55
2023-10-24T09:27:24.783Z,13.99
2023-10-24T09:29:53.286Z,13.96
2023-10-24T09:32:22.085Z,14.85
2023-10-24T09:34:50.263Z,14.41
2023-10-24T09:37:18.323Z,14.67
2023-10-24T09:39:55.244Z,14.19
2023-10-24T09:42:29.195Z,15.03
2023-10-24T09:45:01.475Z,14.76
2023-10-24T09:47:29.779Z,15.29
2023-10-24T09:49:59.539Z,15.38
2023-10-24T09:52:30.014Z,15.45
2023-10-24T09:55:00.741Z,15.82
2023-10-24T09:57:29.561Z,15.29
2023-10-24T10:00:00.920Z,14.72
2023-10-24T10:02:29.928Z,15.38
2023-10-24T10:04:57.950Z,15.69
2023-10-24T10:07:27.629Z,14.97
2023-10-24T10:09:56.217Z,15.33
2023-10-24T10:12:26.898Z,15.32
2023-10-24T10:15:14.949Z,15.81
2023-10-24T10:17:53.882Z,15.74
2023-10-24T10:20:39.907Z,15.92
2023-10-24T10:23:21.238Z,16.04
2023-10-24T10:26:00.003Z,15.65
2023-10-24T10:28:51.010Z,16.16
2023-10-24T10:32:35.577Z,16.17
2023-10-24T10:34:20.408Z,16.03
2023-10-24T10:36:55.299Z,15.83
2023-10-24T10:39:22.980Z,16.10
2023-10-24T10:41:50.668Z,15.94
2023-10-24T10:44:43.609Z,16.05
2023-10-24T10:47:15.985Z,16.54
2023-10-24T10:49:45.954Z,16.50
2023-10-24T10:52:40.789Z,16.41
2023-10-24T10:55:25.475Z,16.21
2023-10-24T10:58:04.319Z,16.22
2023-10-24T11:00:45.030Z,16.40
2023-10-24T11:03:33.464Z,16.44
2023-10-24T11:06:09.440Z,16.43
2023-10-24T11:08:38.905Z,16.00
2023-10-24T11:11:10.518Z,16.31
2023-10-24T11:13:41.665Z,16.71
2023-10-24T11:16:25.393Z,16.73
2023-10-24T11:18:58.371Z,16.61
2023-10-24T11:21:26.022Z,16.33
2023-10-24T11:23:54.934Z,16.39
2023-10-24T11:26:22.705Z,16.18
2023-10-24T11:28:52.792Z,16.16
2023-10-24T11:31:23.678Z,16.38
2023-10-24T11:33:51.911Z,16.34
2023-10-24T11:36:19.727Z,16.52
2023-10-24T11:38:48.885Z,16.07
2023-10-24T11:41:16.766Z,16.40
2023-10-24T11:43:46.283Z,16.23
2023-10-24T11:46:14.150Z,16.59
2023-10-24T11:48:43.225Z,16.61
2023-10-24T11:51:10.932Z,16.68
2023-10-24T11:53:38.632Z,16.16
2023-10-24T11:56:09.726Z,16.28
2023-10-24T11:58:37.622Z,16.77
2023-10-24T12:01:05.436Z,16.72
2023-10-24T12:03:47.213Z,16.76
2023-10-24T12:06:18.131Z,16.77
2023-10-24T12:08:46.079Z,16.88
2023-10-24T12:11:14.837Z,16.61
2023-10-24T12:13:42.692Z,16.59
2023-10-24T12:16:10.754Z,16.81
2023-10-24T12:18:39.619Z,16.79
2023-10-24T12:21:11.415Z,16.43
2023-10-24T12:23:40.379Z,16.56
2023-10-24T12:26:08.258Z,16.61
2023-10-24T12:28:37.560Z,16.50
2023-10-24T12:31:06.318Z,16.30
2023-10-24T12:33:34.309Z,16.72
2023-10-24T12:36:02.271Z,16.61
2023-10-24T12:38:32.317Z,16.87
2023-10-24T12:41:00.109Z,16.73
2023-10-24T12:43:27.787Z,16.38
2023-10-24T12:45:55.782Z,16.16
2023-10-24T12:48:23.686Z,16.29
2023-10-24T12:50:51.380Z,15.73
2023-10-24T12:53:19.031Z,15.94
2023-10-24T12:55:48.319Z,16.04
2023-10-24T12:58:16.020Z,16.25
2023-10-24T13:00:46.323Z,16.53
2023-10-24T13:03:17.945Z,16.44
2023-10-24T13:05:46.775Z,16.56
2023-10-24T13:08:14.534Z,16.38
2023-10-24T13:10:42.325Z,16.13
2023-10-24T13:13:11.485Z,16.04
2023-10-24T13:15:39.147Z,15.92
2023-10-24T13:18:07.084Z,16.22
2023-10-24T13:20:34.812Z,16.51
2023-10-24T13:23:02.513Z,16.06
2023-10-24T13:25:31.014Z,16.55
2023-10-24T13:27:58.790Z,16.67
2023-10-24T13:30:40.049Z,16.04
2023-10-24T13:33:09.134Z,16.22
2023-10-24T13:38:07.862Z,16.31
2023-10-24T13:40:35.609Z,16.24
2023-10-24T13:43:03.770Z,16.35
2023-10-24T13:45:32.916Z,16.71
2023-10-24T13:48:00.956Z,16.32
2023-10-24T13:50:28.815Z,16.14
2023-10-24T13:52:56.590Z,16.31
2023-10-24T13:55:24.315Z,16.30
2023-10-24T13:57:52.417Z,16.50
2023-10-24T14:00:20.294Z,16.55
2023-10-24T14:02:49.395Z,16.71
2023-10-24T14:05:17.249Z,16.21
2023-10-24T14:07:45.637Z,16.22
2023-10-24T14:10:13.560Z,16.28
2023-10-24T14:12:41.300Z,16.04
2023-10-24T14:15:09.445Z,16.34
2023-10-24T14:17:37.182Z,16.03
2023-10-24T14:20:07.835Z,16.02
2023-10-24T14:22:36.491Z,15.51
2023-10-24T14:25:04.702Z,15.78
2023-10-24T14:27:32.379Z,16.30
2023-10-24T14:30:00.303Z,16.09
2023-10-24T14:32:28.053Z,15.89
2023-10-24T14:34:56.002Z,16.08
2023-10-24T14:37:26.052Z,15.72
2023-10-24T14:39:53.772Z,15.94
2023-10-24T14:42:21.486Z,15.92
2023-10-24T14:44:51.064Z,16.20
2023-10-24T14:47:18.807Z,16.34
2023-10-24T14:49:46.613Z,16.23
2023-10-24T14:52:14.335Z,15.85
2023-10-24T14:54:43.456Z,16.31
2023-10-24T14:57:11.600Z,16.36
2023-10-24T14:59:39.385Z,16.21
2023-10-24T15:02:07.858Z,16.25
2023-10-24T15:04:35.714Z,16.18
2023-10-24T15:07:03.399Z,16.30
2023-10-24T15:09:31.185Z,16.41
2023-10-24T15:12:01.032Z,15.86
2023-10-24T15:14:28.750Z,15.96
2023-10-24T15:16:56.548Z,16.05
2023-10-24T15:19:24.276Z,16.27
2023-10-24T15:21:51.958Z,16.53
2023-10-24T15:24:20.988Z,16.12
2023-10-24T15:26:50.485Z,16.35
2023-10-24T15:29:19.662Z,16.65
2023-10-24T15:31:47.558Z,16.50
2023-10-24T15:34:15.285Z,16.54
2023-10-24T15:36:43.069Z,16.45
2023-10-24T15:39:10.792Z,16.41
2023-10-24T15:41:38.502Z,15.96
2023-10-24T15:44:06.563Z,16.40
2023-10-24T15:46:35.703Z,16.59
2023-10-24T15:49:04.379Z,16.60
2023-10-24T15:51:32.078Z,16.56
2023-10-24T15:53:59.744Z,16.50
2023-10-24T15:56:27.489Z,16.56
2023-10-24T15:58:55.278Z,16.49
2023-10-24T16:01:26.823Z,16.50
2023-10-24T16:03:56.183Z,16.44
2023-10-24T16:06:24.135Z,16.44
2023-10-24T16:08:51.948Z,16.36
2023-10-24T16:11:21.037Z,15.98
2023-10-24T16:13:50.223Z,15.92
2023-10-24T16:16:17.917Z,16.26
2023-10-24T16:18:45.664Z,16.39
2023-10-24T16:21:14.674Z,16.23
2023-10-24T16:23:42.414Z,16.39
2023-10-24T16:26:10.992Z,16.50
2023-10-24T16:28:40.420Z,16.46
2023-10-24T16:31:08.858Z,16.27
2023-10-24T16:33:36.572Z,15.66
2023-10-24T16:36:05.124Z,15.80
2023-10-24T16:38:34.323Z,15.80
2023-10-24T16:41:02.484Z,15.53
2023-10-24T16:43:31.546Z,16.00
2023-10-24T16:45:59.600Z,16.39
2023-10-24T16:48:29.278Z,16.43
2023-10-24T16:50:58.139Z,16.28
2023-10-24T16:53:26.515Z,16.50
2023-10-24T16:55:57.144Z,16.35
2023-10-24T16:58:26.147Z,16.23
2023-10-24T17:00:56.197Z,16.26
2023-10-24T17:03:24.292Z,16.47
2023-10-24T17:05:52.123Z,16.45
2023-10-24T17:08:19.849Z,16.53
2023-10-24T17:10:57.920Z,16.24
2023-10-24T17:13:26.120Z,16.32
2023-10-24T17:15:53.888Z,15.89
2023-10-24T17:18:21.838Z,16.12
2023-10-24T17:20:49.507Z,15.63
2023-10-24T17:23:17.289Z,15.91
2023-10-24T17:25:45.020Z,16.13
2023-10-24T17:28:20.529Z,15.97
2023-10-24T17:30:48.772Z,15.64
2023-10-24T17:33:16.598Z,15.33
2023-10-24T17:35:44.710Z,15.66
2023-10-24T17:38:12.492Z,15.50
2023-10-24T17:40:43.629Z,15.87
2023-10-24T17:43:11.377Z,16.01
2023-10-24T17:45:45.373Z,14.92
2023-10-24T17:48:13.348Z,15.28
2023-10-24T17:50:41.874Z,15.84
2023-10-24T17:53:10.061Z,14.92
2023-10-24T17:55:38.536Z,14.97
2023-10-24T17:58:06.728Z,15.54
2023-10-24T18:00:35.426Z,15.94
2023-10-24T18:03:04.998Z,15.99
2023-10-24T18:05:32.749Z,15.84
2023-10-24T18:08:01.910Z,15.71
2023-10-24T18:10:29.706Z,15.79
2023-10-24T18:12:57.838Z,15.81
2023-10-24T18:15:25.508Z,16.01
2023-10-24T18:17:53.241Z,16.23
2023-10-24T18:20:22.537Z,16.10
2023-10-24T18:22:50.305Z,15.95
2023-10-24T18:25:18.224Z,16.00
2023-10-24T18:27:46.579Z,16.28
2023-10-24T18:30:15.226Z,16.26
2023-10-24T18:32:42.977Z,16.06
2023-10-24T18:35:11.754Z,15.68
2023-10-24T18:37:41.094Z,15.79
2023-10-24T18:40:10.207Z,15.89
2023-10-24T18:42:37.925Z,16.11
2023-10-24T18:45:06.768Z,16.02
2023-10-24T18:47:34.461Z,16.10
2023-10-24T18:50:02.241Z,16.08
2023-10-24T18:52:30.049Z,16.01
2023-10-24T18:54:59.171Z,15.96
2023-10-24T18:57:27.030Z,15.99
2023-10-24T19:02:25.659Z,16.10
2023-10-24T19:04:53.344Z,15.75
2023-10-24T19:07:21.072Z,15.85
2023-10-24T19:09:49.287Z,16.07
2023-10-24T19:12:19.175Z,15.87
2023-10-24T19:14:47.529Z,15.61
2023-10-24T19:17:15.976Z,15.59
2023-10-24T19:19:44.667Z,15.65
2023-10-24T19:22:13.127Z,15.33
2023-10-24T19:24:41.330Z,15.54
2023-10-24T19:27:10.578Z,15.56
2023-10-24T19:29:40.135Z,15.50
2023-10-24T19:32:09.107Z,15.51
2023-10-24T19:34:38.903Z,15.14
2023-10-24T19:37:10.018Z,15.11
2023-10-24T19:39:38.260Z,15.31
2023-10-24T19:42:08.146Z,15.15
2023-10-24T19:44:36.584Z,14.98
2023-10-24T19:47:06.678Z,14.75
2023-10-24T19:49:38.012Z,14.89
2023-10-24T19:52:06.566Z,15.11
2023-10-24T19:54:35.037Z,15.15
2023-10-24T19:57:03.060Z,15.11
2023-10-24T19:59:31.815Z,15.06
2023-10-24T20:02:00.162Z,15.23
2023-10-24T20:04:30.401Z,15.06
2023-10-24T20:07:00.775Z,15.23
2023-10-24T20:11:01.978Z,15.24
2023-10-24T20:12:35.959Z,15.13
2023-10-24T20:15:07.947Z,14.92
2023-10-24T20:17:37.711Z,15.11
2023-10-24T20:20:07.901Z,14.77
2023-10-24T20:22:37.128Z,15.17
2023-10-24T20:25:06.295Z,14.99
2023-10-24T20:27:35.428Z,15.15
2023-10-24T20:30:05.633Z,15.10
2023-10-24T20:32:33.929Z,15.23
2023-10-24T20:35:02.279Z,15.13
2023-10-24T20:37:31.418Z,14.98
2023-10-24T20:39:59.608Z,15.08
2023-10-24T20:42:28.691Z,14.87
2023-10-24T20:44:56.861Z,14.67
2023-10-24T20:47:24.874Z,14.17
2023-10-24T20:49:52.629Z,14.46
2023-10-24T20:52:20.418Z,14.33
2023-10-24T20:54:51.293Z,14.32
2023-10-24T20:57:18.948Z,14.33
2023-10-24T20:59:46.676Z,14.65
2023-10-24T21:02:14.367Z,14.53
2023-10-24T21:04:42.992Z,14.96
2023-10-24T21:07:11.715Z,14.28
2023-10-24T21:09:39.545Z,14.05
2023-10-24T21:12:09.826Z,14.16
2023-10-24T21:14:37.590Z,14.21
2023-10-24T21:17:04.635Z,14.35
2023-10-24T21:19:32.432Z,14.46
2023-10-24T21:22:00.198Z,14.32
2023-10-24T21:24:28.737Z,14.72
2023-10-24T21:26:56.805Z,14.58
2023-10-24T21:29:28.272Z,14.35
2023-10-24T21:31:57.106Z,14.34
2023-10-24T21:34:24.847Z,13.86
2023-10-24T21:36:52.602Z,13.54
2023-10-24T21:39:20.769Z,14.01
2023-10-24T21:41:48.417Z,14.12
2023-10-24T21:44:16.072Z,13.61
2023-10-24T21:46:45.204Z,14.02
2023-10-24T21:49:13.234Z,13.67
2023-10-24T21:51:41.003Z,13.96
2023-10-24T21:54:09.035Z,14.08
2023-10-24T21:56:36.724Z,14.15
2023-10-24T21:59:04.402Z,13.84
2023-10-24T22:01:32.235Z,14.00
2023-10-24T22:04:01.367Z,13.92
2023-10-24T22:06:29.241Z,13.93
2023-10-24T22:08:56.934Z,13.85
2023-10-24T22:11:24.679Z,13.68
2023-10-24T22:13:52.405Z,13.71
2023-10-24T22:16:20.237Z,13.48
2023-10-24T22:18:48.020Z,13.67
2023-10-24T22:21:17.548Z,13.71
2023-10-24T22:23:45.547Z,13.66
2023-10-24T22:26:14.021Z,13.45
2023-10-24T22:28:41.738Z,13.46
2023-10-24T22:31:09.481Z,13.42
2023-10-24T22:33:37.254Z,13.48
2023-10-24T22:36:05.950Z,13.20
2023-10-24T22:38:34.941Z,12.90
2023-10-24T22:41:02.621Z,13.36
2023-10-24T22:43:32.495Z,13.04
2023-10-24T22:46:00.271Z,13.03
2023-10-24T22:48:28.033Z,12.91
2023-10-24T22:50:55.709Z,12.64
2023-10-24T22:53:24.071Z,12.81
2023-10-24T22:55:53.109Z,13.03
2023-10-24T22:58:20.844Z,12.85
2023-10-24T23:00:48.587Z,12.66
2023-10-24T23:03:16.480Z,12.91
2023-10-24T23:05:44.882Z,12.95
2023-10-24T23:08:12.603Z,12.46
2023-10-24T23:10:40.462Z,12.78
2023-10-24T23:13:09.635Z,13.05
2023-10-24T23:15:40.409Z,12.83
2023-10-24T23:18:08.228Z,12.77
2023-10-24T23:20:35.883Z,12.87
2023-10-24T23:23:03.554Z,13.20
2023-10-24T23:25:31.256Z,12.84
2023-10-24T23:27:59.219Z,12.67
2023-10-24T23:30:30.586Z,12.74
2023-10-24T23:32:58.380Z,12.58
2023-10-24T23:35:26.290Z,12.55
2023-10-24T23:37:53.969Z,12.20
2023-10-24T23:40:21.817Z,12.18
2023-10-24T23:42:49.554Z,12.55
2023-10-24T23:45:17.424Z,12.62
2023-10-24T23:47:46.539Z,12.38
2023-10-24T23:50:14.237Z,12.63
2023-10-24T23:52:41.955Z,12.65
2023-10-24T23:55:10.347Z,12.30
2023-10-24T23:57:38.056Z,12.40
